METAR Data
IDs: Format: Raw Decoded Include TAF

Data at: 2112 UTC 18 Sep 2018

KIZG 182054Z AUTO 16003KT 10SM CLR 27/19 A2971 RMK AO2 SLP059 T02670194 55004
KIZG 181954Z AUTO 00000KT 10SM FEW055 27/19 A2971 RMK AO2 SLP056 T02720194
KIZG 181854Z AUTO 00000KT 10SM CLR 27/19 A2972 RMK AO2 SLP061 T02670189
KIZG 181754Z AUTO 00000KT 10SM CLR 25/20 A2973 RMK AO2 SLP065 60005 T02500200 10261 20200 56019
KIZG 181727Z AUTO VRB03KT 10SM SCT016 SCT055 BKN065 25/20 A2973 RMK AO2 T02500200
KIZG 181710Z AUTO 00000KT 10SM BKN016 OVC065 24/20 A2974 RMK AO2 T02440200
KIZG 181654Z AUTO 00000KT 10SM SCT015 BKN060 24/20 A2975 RMK AO2 SLP071 T02440200
KIZG 181631Z AUTO 00000KT 10SM SCT011 24/20 A2974 RMK AO2 T02390200
KIZG 181554Z AUTO 00000KT 10SM OVC012 23/19 A2976 RMK AO2 SLP075 T02280194
KIZG 181534Z AUTO 00000KT 10SM SCT008 OVC013 22/20 A2976 RMK AO2 T02170200
KIZG 181454Z AUTO 00000KT 10SM OVC008 21/20 A2978 RMK AO2 CIG 007V011 SLP084 60005 T02110200 56012
KIZG 181401Z AUTO 32003KT 10SM BKN006 OVC011 21/19 A2979 RMK AO2 CIG 003V008 T02060194
KIZG 181354Z AUTO 33003KT 10SM FEW003 OVC011 21/20 A2979 RMK AO2 RAE12 CIG 006V013 SLP087 P0000 T02060200
KIZG 181347Z AUTO 30003KT 10SM FEW004 OVC011 21/20 A2979 RMK AO2 RAE12 P0000 T02060200
KIZG 181304Z AUTO 36003KT 10SM -RA BKN008 BKN047 OVC070 21/19 A2981 RMK AO2 P0000 T02060194
KIZG 181254Z AUTO 00000KT 10SM -RA SCT041 BKN070 OVC100 21/19 A2981 RMK AO2 SLP092 P0005 T02060194
KIZG 181154Z AUTO 00000KT 9SM -RA BKN110 20/19 A2982 RMK AO2 RAB02E17B42 SLP096 P0001 60001 70001 T02000194 10222 20200 56008
KIZG 181054Z AUTO VRB04KT 10SM OVC110 21/19 A2983 RMK AO2 RAE0956B17E36 SLP099 P0000 T02060189
KIZG 180954Z AUTO 23008KT 10SM -RA CLR 21/19 A2983 RMK AO2 RAB32 SLP100 P0000 T02060189
KIZG 180854Z AUTO 22010G16KT 10SM SCT110 21/18 A2984 RMK AO2 RAB26E45 SLP103 P0000 60000 T02060183 55012
KIZG 180754Z AUTO 23007KT 10SM CLR 21/17 A2984 RMK AO2 SLP101 T02110172
KIZG 180654Z AUTO 22007KT 10SM CLR 22/17 A2985 RMK AO2 SLP106 T02170172
KIZG 180554Z AUTO 23006KT 10SM CLR 21/17 A2988 RMK AO2 SLP115 T02060167 10233 20206 58009
KIZG 180454Z AUTO 00000KT 10SM CLR 21/17 A2990 RMK AO2 SLP122 T02110167 403060156
KIZG 180354Z AUTO 24004KT 10SM CLR 21/17 A2991 RMK AO2 SLP124 T02110167 TSNO
KIZG 180254Z AUTO 25003KT 10SM CLR 22/17 A2991 RMK AO2 SLP125 T02220167 56007 TSNO
KIZG 180154Z AUTO VRB06KT 10SM CLR 22/17 A2991 RMK AO2 SLP128 T02220167
KIZG 180054Z AUTO VRB06G14KT 10SM CLR 23/17 A2992 RMK AO2 SLP129 T02330172
KIZG 172354Z AUTO 25004KT 10SM CLR 23/17 A2993 RMK AO2 SLP133 T02280172 10306 20228 55005
KIZG 172254Z AUTO VRB04KT 10SM CLR 24/17 A2992 RMK AO2 SLP131 T02390172
KIZG 172154Z AUTO 20007KT 10SM CLR 26/18 A2993 RMK AO2 SLP135 T02560178
KIZG 172054Z AUTO VRB05KT 10SM CLR 28/17 A2994 RMK AO2 SLP138 T02780172 56016
KIZG 171954Z AUTO 22009G16KT 080V270 10SM CLR 29/17 A2996 RMK AO2 SLP143 T02890172
KIZG 171854Z AUTO 20008G17KT 170V240 10SM CLR 29/18 A2997 RMK AO2 SLP148 T02940178
KIZG 171754Z AUTO VRB06KT 10SM CLR 29/19 A2999 RMK AO2 SLP153 T02940189 10306 20178 58025
KIZG 171654Z AUTO VRB06KT 10SM CLR 30/20 A3002 RMK AO2 SLP164 T03000200
KIZG 171554Z AUTO VRB04KT 10SM CLR 29/20 A3004 RMK AO2 SLP169 T02890200
KIZG 171454Z AUTO VRB04KT 10SM CLR 28/21 A3007 RMK AO2 SLP179 T02830211 58019
KIZG 171354Z AUTO 00000KT 10SM CLR 24/20 A3009 RMK AO2 SLP189 T02440200
KIZG 171254Z AUTO 00000KT 10SM CLR 22/19 A3011 RMK AO2 SLP194 T02170189
KIZG 171241Z AUTO 00000KT 10SM SCT001 20/18 A3011 RMK AO2 T02000183
KIZG 171232Z AUTO 00000KT 10SM BKN001 20/18 A3012 RMK AO2 T02000183
KIZG 171225Z AUTO 00000KT 2SM BR BKN001 19/18 A3012 RMK AO2 T01940183
KIZG 171217Z AUTO 00000KT 1 1/4SM BR BKN001 19/18 A3012 RMK AO2 VIS 1/2V5 T01890183
KIZG 171215Z AUTO 00000KT 2SM BR BKN001 19/18 A3012 RMK AO2 VIS 1/2V5 T01890178
KIZG 171207Z AUTO 00000KT 7SM SCT001 18/18 A3012 RMK AO2 T01830178
KIZG 171154Z AUTO 00000KT 10SM CLR 18/17 A3012 RMK AO2 SLP199 T01780172 10178 20156 58005
KIZG 171140Z AUTO 00000KT 10SM FEW002 17/17 A3013 RMK AO2 T01720167
KIZG 171121Z AUTO 00000KT 10SM BKN003 17/17 A3013 RMK AO2 T01720167 $
KIZG 171107Z AUTO 00000KT 3SM BR OVC004 16/16 A3013 RMK AO2 T01610161 $
KIZG 171104Z AUTO 00000KT 2SM BR OVC003 16/16 A3013 RMK AO2 T01610161 $
KIZG 171054Z AUTO 00000KT 1 1/4SM BR OVC003 16/16 A3013 RMK AO2 SLP203 T01610161 $
KIZG 171049Z AUTO 00000KT 2SM BR OVC003 16/16 A3013 RMK AO2 VIS 3/4V5 $
KIZG 171046Z AUTO 00000KT 1SM BR OVC003 16/16 A3013 RMK AO2 VIS 1/4V4 T01610161 $
KIZG 170954Z AUTO 00000KT 1/4SM FG VV002 16/16 A3013 RMK AO2 SLP203 T01610161 $
KIZG 170921Z AUTO 00000KT 1/4SM FG VV002 16/16 A3013 RMK AO2 T01610156 $
KIZG 170913Z AUTO 00000KT 1 1/4SM BR OVC002 16/15 A3013 RMK AO2 VIS 1/2V4 T01560150 $